Tyne Valley, Canada
Current Conditions -  °F | °C
As of 1:00 AM on Saturday 20 Dec 2014 (Local Time) from CYYG Reporting Station
Snow Showers Snow Showers  
Wind Chill: 18°   Ceiling: 2400
Heat Index: 28°   Visibility: 15mi
Dew Point: 27°   Wind: 12mph
Humidity: 93%   Direction: 10°N
Pressure: 30.02"   Gusts: NA
Location:  46.57°N, 63.93°W
Report Text: CYYG 200500Z 01010KT 15SM -SHSN FEW010 OVC024 M02/M03 A3002 RMK SC2SC6 SLP169
Loading
Personal Weather Stations






























Interactive Weather Map New forecast layout! Learn more

10-Day Weather Forecast

Advertisements
Track Severe Weather on mobile